sensor_id;sensor_type;location;lat;lon;timestamp;P1;durP1;ratioP1;P2;durP2;ratioP2
64061;SDS011;50308;47.438;-1.528;2023-08-17T00:01:57;5.68;;;3.35;;
64061;SDS011;50308;47.438;-1.528;2023-08-17T00:04:23;6.78;;;3.15;;
64061;SDS011;50308;47.438;-1.528;2023-08-17T00:06:48;6.30;;;3.50;;
64061;SDS011;50308;47.438;-1.528;2023-08-17T00:09:14;5.57;;;3.47;;
64061;SDS011;50308;47.438;-1.528;2023-08-17T00:11:40;7.45;;;3.28;;
64061;SDS011;50308;47.438;-1.528;2023-08-17T00:14:05;5.93;;;3.60;;
64061;SDS011;50308;47.438;-1.528;2023-08-17T00:16:31;7.22;;;3.35;;
64061;SDS011;50308;47.438;-1.528;2023-08-17T00:18:57;6.55;;;3.30;;
64061;SDS011;50308;47.438;-1.528;2023-08-17T00:21:23;7.32;;;3.17;;
64061;SDS011;50308;47.438;-1.528;2023-08-17T00:23:48;5.18;;;3.50;;
64061;SDS011;50308;47.438;-1.528;2023-08-17T00:26:14;5.68;;;3.38;;
64061;SDS011;50308;47.438;-1.528;2023-08-17T00:28:40;5.80;;;3.17;;
64061;SDS011;50308;47.438;-1.528;2023-08-17T00:31:06;5.25;;;3.53;;
64061;SDS011;50308;47.438;-1.528;2023-08-17T00:33:31;7.57;;;2.72;;
64061;SDS011;50308;47.438;-1.528;2023-08-17T00:35:57;5.50;;;3.00;;
64061;SDS011;50308;47.438;-1.528;2023-08-17T00:38:23;7.03;;;3.38;;
64061;SDS011;50308;47.438;-1.528;2023-08-17T00:40:49;7.22;;;3.30;;
64061;SDS011;50308;47.438;-1.528;2023-08-17T00:43:15;5.93;;;3.25;;
64061;SDS011;50308;47.438;-1.528;2023-08-17T00:45:41;5.88;;;3.45;;
64061;SDS011;50308;47.438;-1.528;2023-08-17T00:48:07;6.15;;;3.42;;
64061;SDS011;50308;47.438;-1.528;2023-08-17T00:50:34;7.63;;;3.65;;
64061;SDS011;50308;47.438;-1.528;2023-08-17T00:53:00;4.70;;;3.13;;
64061;SDS011;50308;47.438;-1.528;2023-08-17T00:55:26;5.30;;;3.17;;
64061;SDS011;50308;47.438;-1.528;2023-08-17T00:57:53;4.97;;;3.20;;
64061;SDS011;50308;47.438;-1.528;2023-08-17T01:00:20;5.05;;;3.50;;
64061;SDS011;50308;47.438;-1.528;2023-08-17T01:02:47;7.10;;;3.08;;
64061;SDS011;50308;47.438;-1.528;2023-08-17T01:05:13;6.93;;;3.33;;
64061;SDS011;50308;47.438;-1.528;2023-08-17T01:07:39;5.10;;;2.95;;
64061;SDS011;50308;47.438;-1.528;2023-08-17T01:10:05;6.03;;;3.35;;
64061;SDS011;50308;47.438;-1.528;2023-08-17T01:12:35;6.38;;;3.22;;
64061;SDS011;50308;47.438;-1.528;2023-08-17T01:15:09;8.52;;;3.28;;
64061;SDS011;50308;47.438;-1.528;2023-08-17T01:20:27;4.78;;;3.33;;
64061;SDS011;50308;47.438;-1.528;2023-08-17T01:22:55;7.80;;;3.20;;
64061;SDS011;50308;47.438;-1.528;2023-08-17T01:27:49;7.45;;;4.00;;
64061;SDS011;50308;47.438;-1.528;2023-08-17T01:30:16;5.30;;;3.30;;
64061;SDS011;50308;47.438;-1.528;2023-08-17T01:35:25;5.45;;;3.55;;
64061;SDS011;50308;47.438;-1.528;2023-08-17T01:37:58;7.22;;;3.38;;
64061;SDS011;50308;47.438;-1.528;2023-08-17T01:40:28;5.18;;;3.33;;
64061;SDS011;50308;47.438;-1.528;2023-08-17T01:42:57;5.63;;;3.58;;
64061;SDS011;50308;47.438;-1.528;2023-08-17T01:45:24;8.10;;;3.38;;
64061;SDS011;50308;47.438;-1.528;2023-08-17T01:47:50;6.60;;;3.90;;
64061;SDS011;50308;47.438;-1.528;2023-08-17T01:50:16;6.40;;;3.58;;
64061;SDS011;50308;47.438;-1.528;2023-08-17T01:52:42;7.47;;;3.78;;
64061;SDS011;50308;47.438;-1.528;2023-08-17T01:55:07;5.03;;;3.35;;
64061;SDS011;50308;47.438;-1.528;2023-08-17T01:57:33;6.30;;;3.78;;
64061;SDS011;50308;47.438;-1.528;2023-08-17T02:00:00;8.23;;;4.03;;
64061;SDS011;50308;47.438;-1.528;2023-08-17T02:02:26;4.95;;;3.50;;
64061;SDS011;50308;47.438;-1.528;2023-08-17T02:04:52;5.22;;;3.47;;
64061;SDS011;50308;47.438;-1.528;2023-08-17T02:07:18;4.68;;;3.30;;
64061;SDS011;50308;47.438;-1.528;2023-08-17T02:09:43;5.80;;;3.65;;
64061;SDS011;50308;47.438;-1.528;2023-08-17T02:12:09;6.20;;;3.88;;
64061;SDS011;50308;47.438;-1.528;2023-08-17T02:14:34;7.13;;;3.42;;
64061;SDS011;50308;47.438;-1.528;2023-08-17T02:17:00;6.28;;;3.53;;
64061;SDS011;50308;47.438;-1.528;2023-08-17T02:19:26;6.05;;;3.35;;
64061;SDS011;50308;47.438;-1.528;2023-08-17T02:21:51;5.65;;;3.58;;
64061;SDS011;50308;47.438;-1.528;2023-08-17T02:24:17;7.97;;;3.60;;
64061;SDS011;50308;47.438;-1.528;2023-08-17T02:26:42;5.32;;;3.08;;
64061;SDS011;50308;47.438;-1.528;2023-08-17T02:29:08;5.53;;;3.55;;
64061;SDS011;50308;47.438;-1.528;2023-08-17T02:31:34;5.10;;;3.30;;
64061;SDS011;50308;47.438;-1.528;2023-08-17T02:33:59;5.95;;;3.55;;
64061;SDS011;50308;47.438;-1.528;2023-08-17T02:36:30;5.97;;;3.70;;
64061;SDS011;50308;47.438;-1.528;2023-08-17T02:38:56;5.20;;;3.50;;
64061;SDS011;50308;47.438;-1.528;2023-08-17T02:41:22;5.00;;;3.63;;
64061;SDS011;50308;47.438;-1.528;2023-08-17T02:43:48;5.60;;;3.47;;
64061;SDS011;50308;47.438;-1.528;2023-08-17T02:46:13;4.75;;;3.63;;
64061;SDS011;50308;47.438;-1.528;2023-08-17T02:48:40;7.03;;;3.28;;
64061;SDS011;50308;47.438;-1.528;2023-08-17T02:51:05;4.18;;;3.05;;
64061;SDS011;50308;47.438;-1.528;2023-08-17T02:53:31;5.65;;;3.45;;
64061;SDS011;50308;47.438;-1.528;2023-08-17T02:55:57;5.65;;;3.83;;
64061;SDS011;50308;47.438;-1.528;2023-08-17T02:58:22;5.40;;;3.60;;
64061;SDS011;50308;47.438;-1.528;2023-08-17T03:00:50;4.80;;;3.55;;
64061;SDS011;50308;47.438;-1.528;2023-08-17T03:03:16;7.25;;;3.38;;
64061;SDS011;50308;47.438;-1.528;2023-08-17T03:05:42;6.15;;;4.15;;
64061;SDS011;50308;47.438;-1.528;2023-08-17T03:08:08;5.18;;;3.33;;
64061;SDS011;50308;47.438;-1.528;2023-08-17T03:10:34;4.93;;;2.97;;
64061;SDS011;50308;47.438;-1.528;2023-08-17T03:12:59;6.45;;;3.30;;
64061;SDS011;50308;47.438;-1.528;2023-08-17T03:15:25;5.38;;;3.35;;
64061;SDS011;50308;47.438;-1.528;2023-08-17T03:17:51;4.38;;;3.40;;
64061;SDS011;50308;47.438;-1.528;2023-08-17T03:20:16;4.70;;;3.15;;
64061;SDS011;50308;47.438;-1.528;2023-08-17T03:22:42;5.00;;;3.40;;
64061;SDS011;50308;47.438;-1.528;2023-08-17T03:25:08;6.00;;;3.83;;
64061;SDS011;50308;47.438;-1.528;2023-08-17T03:27:34;4.63;;;3.35;;
64061;SDS011;50308;47.438;-1.528;2023-08-17T03:29:59;4.88;;;3.53;;
64061;SDS011;50308;47.438;-1.528;2023-08-17T03:32:25;4.43;;;3.03;;
64061;SDS011;50308;47.438;-1.528;2023-08-17T03:34:51;5.22;;;3.42;;
64061;SDS011;50308;47.438;-1.528;2023-08-17T03:37:16;6.07;;;3.28;;
64061;SDS011;50308;47.438;-1.528;2023-08-17T03:39:42;8.82;;;3.80;;
64061;SDS011;50308;47.438;-1.528;2023-08-17T03:42:07;4.65;;;3.10;;
64061;SDS011;50308;47.438;-1.528;2023-08-17T03:44:33;5.68;;;3.50;;
64061;SDS011;50308;47.438;-1.528;2023-08-17T03:46:59;4.82;;;3.40;;
64061;SDS011;50308;47.438;-1.528;2023-08-17T03:49:24;4.90;;;3.47;;
64061;SDS011;50308;47.438;-1.528;2023-08-17T03:51:50;8.57;;;3.80;;
64061;SDS011;50308;47.438;-1.528;2023-08-17T03:54:17;5.75;;;3.78;;
64061;SDS011;50308;47.438;-1.528;2023-08-17T03:56:43;5.90;;;3.25;;
64061;SDS011;50308;47.438;-1.528;2023-08-17T03:59:09;5.32;;;3.85;;
64061;SDS011;50308;47.438;-1.528;2023-08-17T04:01:34;5.55;;;3.40;;
64061;SDS011;50308;47.438;-1.528;2023-08-17T04:04:00;5.63;;;3.17;;
64061;SDS011;50308;47.438;-1.528;2023-08-17T04:06:26;5.90;;;3.30;;
64061;SDS011;50308;47.438;-1.528;2023-08-17T04:08:51;4.78;;;3.75;;
64061;SDS011;50308;47.438;-1.528;2023-08-17T04:11:17;7.90;;;3.58;;
64061;SDS011;50308;47.438;-1.528;2023-08-17T04:13:43;6.65;;;3.20;;
64061;SDS011;50308;47.438;-1.528;2023-08-17T04:16:08;5.18;;;3.33;;
64061;SDS011;50308;47.438;-1.528;2023-08-17T04:18:34;4.55;;;3.10;;
64061;SDS011;50308;47.438;-1.528;2023-08-17T04:20:59;5.40;;;3.30;;
64061;SDS011;50308;47.438;-1.528;2023-08-17T04:23:25;5.38;;;3.42;;
64061;SDS011;50308;47.438;-1.528;2023-08-17T04:25:51;4.75;;;3.30;;
64061;SDS011;50308;47.438;-1.528;2023-08-17T04:28:18;3.95;;;2.95;;
64061;SDS011;50308;47.438;-1.528;2023-08-17T04:30:44;5.45;;;3.17;;
64061;SDS011;50308;47.438;-1.528;2023-08-17T04:33:09;5.00;;;3.08;;
64061;SDS011;50308;47.438;-1.528;2023-08-17T04:35:35;5.95;;;3.00;;
64061;SDS011;50308;47.438;-1.528;2023-08-17T04:38:01;3.97;;;3.00;;
64061;SDS011;50308;47.438;-1.528;2023-08-17T04:40:27;7.47;;;3.17;;
64061;SDS011;50308;47.438;-1.528;2023-08-17T04:42:53;6.07;;;3.50;;
64061;SDS011;50308;47.438;-1.528;2023-08-17T04:45:19;6.90;;;3.20;;
64061;SDS011;50308;47.438;-1.528;2023-08-17T04:47:44;5.43;;;3.35;;
64061;SDS011;50308;47.438;-1.528;2023-08-17T04:50:10;3.95;;;3.10;;
64061;SDS011;50308;47.438;-1.528;2023-08-17T04:52:41;4.97;;;3.13;;
64061;SDS011;50308;47.438;-1.528;2023-08-17T04:55:09;4.15;;;2.92;;
64061;SDS011;50308;47.438;-1.528;2023-08-17T04:57:36;4.70;;;3.03;;
64061;SDS011;50308;47.438;-1.528;2023-08-17T05:00:01;3.42;;;3.13;;
64061;SDS011;50308;47.438;-1.528;2023-08-17T05:02:28;4.13;;;3.25;;
64061;SDS011;50308;47.438;-1.528;2023-08-17T05:04:54;4.18;;;3.30;;
64061;SDS011;50308;47.438;-1.528;2023-08-17T05:07:19;4.40;;;3.40;;
64061;SDS011;50308;47.438;-1.528;2023-08-17T05:09:45;4.93;;;3.42;;
64061;SDS011;50308;47.438;-1.528;2023-08-17T05:12:11;7.35;;;3.90;;
64061;SDS011;50308;47.438;-1.528;2023-08-17T05:14:36;9.93;;;3.97;;
64061;SDS011;50308;47.438;-1.528;2023-08-17T05:17:02;6.72;;;3.70;;
64061;SDS011;50308;47.438;-1.528;2023-08-17T05:19:28;5.25;;;3.00;;
64061;SDS011;50308;47.438;-1.528;2023-08-17T05:21:53;4.47;;;3.55;;
64061;SDS011;50308;47.438;-1.528;2023-08-17T05:24:19;7.28;;;3.60;;
64061;SDS011;50308;47.438;-1.528;2023-08-17T05:26:45;6.43;;;3.40;;
64061;SDS011;50308;47.438;-1.528;2023-08-17T05:29:11;4.38;;;3.20;;
64061;SDS011;50308;47.438;-1.528;2023-08-17T05:31:36;7.65;;;3.88;;
64061;SDS011;50308;47.438;-1.528;2023-08-17T05:34:02;5.72;;;3.85;;
64061;SDS011;50308;47.438;-1.528;2023-08-17T05:36:28;6.65;;;3.90;;
64061;SDS011;50308;47.438;-1.528;2023-08-17T05:38:54;6.47;;;4.05;;
64061;SDS011;50308;47.438;-1.528;2023-08-17T05:41:20;7.55;;;4.20;;
64061;SDS011;50308;47.438;-1.528;2023-08-17T05:43:45;8.90;;;3.97;;
64061;SDS011;50308;47.438;-1.528;2023-08-17T05:46:13;5.43;;;4.00;;
64061;SDS011;50308;47.438;-1.528;2023-08-17T05:48:39;6.18;;;4.05;;
64061;SDS011;50308;47.438;-1.528;2023-08-17T05:51:06;6.50;;;4.35;;
64061;SDS011;50308;47.438;-1.528;2023-08-17T05:53:32;7.03;;;4.40;;
64061;SDS011;50308;47.438;-1.528;2023-08-17T05:55:57;5.95;;;4.30;;
64061;SDS011;50308;47.438;-1.528;2023-08-17T05:58:23;9.57;;;4.28;;
64061;SDS011;50308;47.438;-1.528;2023-08-17T06:00:49;7.80;;;3.88;;
64061;SDS011;50308;47.438;-1.528;2023-08-17T06:03:14;6.10;;;4.00;;
64061;SDS011;50308;47.438;-1.528;2023-08-17T06:05:40;8.20;;;4.30;;
64061;SDS011;50308;47.438;-1.528;2023-08-17T06:08:06;9.90;;;4.38;;
64061;SDS011;50308;47.438;-1.528;2023-08-17T06:10:32;6.15;;;4.43;;
64061;SDS011;50308;47.438;-1.528;2023-08-17T06:12:57;9.10;;;4.80;;
64061;SDS011;50308;47.438;-1.528;2023-08-17T06:15:23;9.27;;;5.55;;
64061;SDS011;50308;47.438;-1.528;2023-08-17T06:17:49;7.13;;;4.18;;
64061;SDS011;50308;47.438;-1.528;2023-08-17T06:20:15;10.38;;;5.30;;
64061;SDS011;50308;47.438;-1.528;2023-08-17T06:22:41;8.88;;;5.15;;
64061;SDS011;50308;47.438;-1.528;2023-08-17T06:25:08;7.88;;;5.05;;
64061;SDS011;50308;47.438;-1.528;2023-08-17T06:27:34;9.60;;;4.82;;
64061;SDS011;50308;47.438;-1.528;2023-08-17T06:30:01;9.15;;;5.05;;
64061;SDS011;50308;47.438;-1.528;2023-08-17T06:32:28;9.00;;;4.88;;
64061;SDS011;50308;47.438;-1.528;2023-08-17T06:34:54;12.13;;;5.15;;
64061;SDS011;50308;47.438;-1.528;2023-08-17T06:37:20;8.73;;;5.03;;
64061;SDS011;50308;47.438;-1.528;2023-08-17T06:39:45;11.27;;;5.70;;
64061;SDS011;50308;47.438;-1.528;2023-08-17T06:42:11;11.43;;;5.43;;
64061;SDS011;50308;47.438;-1.528;2023-08-17T06:44:37;9.68;;;5.60;;
64061;SDS011;50308;47.438;-1.528;2023-08-17T06:47:02;7.95;;;5.03;;
64061;SDS011;50308;47.438;-1.528;2023-08-17T06:49:28;9.25;;;4.95;;
64061;SDS011;50308;47.438;-1.528;2023-08-17T06:51:55;10.98;;;5.50;;
64061;SDS011;50308;47.438;-1.528;2023-08-17T06:54:20;9.65;;;5.65;;
64061;SDS011;50308;47.438;-1.528;2023-08-17T06:56:46;9.60;;;5.50;;
64061;SDS011;50308;47.438;-1.528;2023-08-17T06:59:12;9.25;;;5.45;;
64061;SDS011;50308;47.438;-1.528;2023-08-17T07:01:37;9.40;;;5.05;;
64061;SDS011;50308;47.438;-1.528;2023-08-17T07:04:03;8.85;;;5.00;;
64061;SDS011;50308;47.438;-1.528;2023-08-17T07:06:29;11.57;;;5.63;;
64061;SDS011;50308;47.438;-1.528;2023-08-17T07:08:54;12.13;;;5.63;;
64061;SDS011;50308;47.438;-1.528;2023-08-17T07:11:20;7.32;;;5.28;;
64061;SDS011;50308;47.438;-1.528;2023-08-17T07:13:46;8.63;;;4.97;;
64061;SDS011;50308;47.438;-1.528;2023-08-17T07:16:11;7.68;;;4.55;;
64061;SDS011;50308;47.438;-1.528;2023-08-17T07:18:38;11.98;;;6.35;;
64061;SDS011;50308;47.438;-1.528;2023-08-17T07:21:03;8.45;;;5.40;;
64061;SDS011;50308;47.438;-1.528;2023-08-17T07:23:29;7.85;;;5.45;;
64061;SDS011;50308;47.438;-1.528;2023-08-17T07:25:55;11.57;;;5.95;;
64061;SDS011;50308;47.438;-1.528;2023-08-17T07:28:20;7.35;;;5.75;;
64061;SDS011;50308;47.438;-1.528;2023-08-17T07:30:46;8.40;;;4.40;;
64061;SDS011;50308;47.438;-1.528;2023-08-17T07:33:11;7.43;;;4.53;;
64061;SDS011;50308;47.438;-1.528;2023-08-17T07:35:37;6.68;;;4.25;;
64061;SDS011;50308;47.438;-1.528;2023-08-17T07:38:03;7.35;;;4.53;;
64061;SDS011;50308;47.438;-1.528;2023-08-17T07:40:29;7.05;;;4.50;;
64061;SDS011;50308;47.438;-1.528;2023-08-17T07:42:54;5.93;;;3.97;;
64061;SDS011;50308;47.438;-1.528;2023-08-17T07:45:20;7.43;;;4.15;;
64061;SDS011;50308;47.438;-1.528;2023-08-17T07:47:46;8.07;;;4.65;;
64061;SDS011;50308;47.438;-1.528;2023-08-17T07:50:11;7.93;;;4.38;;
64061;SDS011;50308;47.438;-1.528;2023-08-17T07:52:37;5.35;;;3.75;;
64061;SDS011;50308;47.438;-1.528;2023-08-17T07:55:03;9.77;;;5.07;;
64061;SDS011;50308;47.438;-1.528;2023-08-17T07:57:28;11.70;;;4.90;;
64061;SDS011;50308;47.438;-1.528;2023-08-17T07:59:54;6.85;;;4.22;;
64061;SDS011;50308;47.438;-1.528;2023-08-17T08:02:20;5.57;;;3.92;;
64061;SDS011;50308;47.438;-1.528;2023-08-17T08:04:45;5.53;;;3.90;;
64061;SDS011;50308;47.438;-1.528;2023-08-17T08:07:11;5.85;;;4.28;;
64061;SDS011;50308;47.438;-1.528;2023-08-17T08:09:37;7.43;;;4.15;;
64061;SDS011;50308;47.438;-1.528;2023-08-17T08:12:02;5.75;;;4.20;;
64061;SDS011;50308;47.438;-1.528;2023-08-17T08:14:28;5.63;;;3.97;;
64061;SDS011;50308;47.438;-1.528;2023-08-17T08:16:54;6.47;;;3.70;;
64061;SDS011;50308;47.438;-1.528;2023-08-17T08:19:20;5.68;;;3.50;;
64061;SDS011;50308;47.438;-1.528;2023-08-17T08:21:45;6.90;;;3.85;;
64061;SDS011;50308;47.438;-1.528;2023-08-17T08:24:11;6.45;;;3.97;;
64061;SDS011;50308;47.438;-1.528;2023-08-17T08:26:37;4.65;;;3.30;;
64061;SDS011;50308;47.438;-1.528;2023-08-17T08:29:02;6.53;;;3.95;;
64061;SDS011;50308;47.438;-1.528;2023-08-17T08:31:28;5.30;;;3.88;;
64061;SDS011;50308;47.438;-1.528;2023-08-17T08:33:54;6.05;;;4.03;;
64061;SDS011;50308;47.438;-1.528;2023-08-17T08:36:20;4.85;;;3.30;;
64061;SDS011;50308;47.438;-1.528;2023-08-17T08:38:46;6.28;;;3.85;;
64061;SDS011;50308;47.438;-1.528;2023-08-17T08:41:12;6.45;;;4.18;;
64061;SDS011;50308;47.438;-1.528;2023-08-17T08:43:40;6.32;;;3.95;;
64061;SDS011;50308;47.438;-1.528;2023-08-17T08:46:06;5.63;;;3.47;;
64061;SDS011;50308;47.438;-1.528;2023-08-17T08:48:32;7.10;;;4.18;;
64061;SDS011;50308;47.438;-1.528;2023-08-17T08:51:02;5.60;;;3.67;;
64061;SDS011;50308;47.438;-1.528;2023-08-17T08:53:39;7.05;;;3.92;;
64061;SDS011;50308;47.438;-1.528;2023-08-17T08:56:13;6.90;;;4.05;;
64061;SDS011;50308;47.438;-1.528;2023-08-17T08:58:43;7.53;;;4.35;;
64061;SDS011;50308;47.438;-1.528;2023-08-17T09:01:11;6.45;;;4.15;;
64061;SDS011;50308;47.438;-1.528;2023-08-17T09:03:38;7.70;;;4.35;;
64061;SDS011;50308;47.438;-1.528;2023-08-17T09:06:03;5.60;;;4.10;;
64061;SDS011;50308;47.438;-1.528;2023-08-17T09:08:30;7.32;;;4.43;;
64061;SDS011;50308;47.438;-1.528;2023-08-17T09:10:56;6.88;;;4.38;;
64061;SDS011;50308;47.438;-1.528;2023-08-17T09:13:22;5.85;;;4.20;;
64061;SDS011;50308;47.438;-1.528;2023-08-17T09:15:48;7.30;;;4.50;;
64061;SDS011;50308;47.438;-1.528;2023-08-17T09:18:13;6.45;;;4.35;;
64061;SDS011;50308;47.438;-1.528;2023-08-17T09:20:45;7.70;;;4.20;;
64061;SDS011;50308;47.438;-1.528;2023-08-17T09:25:39;7.30;;;4.93;;
64061;SDS011;50308;47.438;-1.528;2023-08-17T09:28:06;7.38;;;4.57;;
64061;SDS011;50308;47.438;-1.528;2023-08-17T09:33:24;5.10;;;4.07;;
64061;SDS011;50308;47.438;-1.528;2023-08-17T09:35:51;6.57;;;4.55;;
64061;SDS011;50308;47.438;-1.528;2023-08-17T09:38:19;7.05;;;4.72;;
64061;SDS011;50308;47.438;-1.528;2023-08-17T09:40:45;6.97;;;4.28;;
64061;SDS011;50308;47.438;-1.528;2023-08-17T09:43:11;5.55;;;4.63;;
64061;SDS011;50308;47.438;-1.528;2023-08-17T09:45:38;5.90;;;4.88;;
64061;SDS011;50308;47.438;-1.528;2023-08-17T09:48:04;6.10;;;4.60;;
64061;SDS011;50308;47.438;-1.528;2023-08-17T09:50:33;5.53;;;4.50;;
64061;SDS011;50308;47.438;-1.528;2023-08-17T09:53:01;5.63;;;4.40;;
64061;SDS011;50308;47.438;-1.528;2023-08-17T09:55:30;8.15;;;4.90;;
64061;SDS011;50308;47.438;-1.528;2023-08-17T09:57:59;6.93;;;4.50;;
64061;SDS011;50308;47.438;-1.528;2023-08-17T10:00:25;8.75;;;5.30;;
64061;SDS011;50308;47.438;-1.528;2023-08-17T10:02:52;7.32;;;5.15;;
64061;SDS011;50308;47.438;-1.528;2023-08-17T10:05:19;9.50;;;5.38;;
64061;SDS011;50308;47.438;-1.528;2023-08-17T10:07:51;11.82;;;4.88;;
64061;SDS011;50308;47.438;-1.528;2023-08-17T10:10:22;7.53;;;4.85;;
64061;SDS011;50308;47.438;-1.528;2023-08-17T10:12:59;7.35;;;4.80;;
64061;SDS011;50308;47.438;-1.528;2023-08-17T10:20:40;8.50;;;5.10;;
64061;SDS011;50308;47.438;-1.528;2023-08-17T10:23:26;8.48;;;5.57;;
64061;SDS011;50308;47.438;-1.528;2023-08-17T10:25:53;7.65;;;4.88;;
64061;SDS011;50308;47.438;-1.528;2023-08-17T10:28:19;8.88;;;5.20;;
64061;SDS011;50308;47.438;-1.528;2023-08-17T10:30:47;6.07;;;4.65;;
64061;SDS011;50308;47.438;-1.528;2023-08-17T10:33:16;8.65;;;5.43;;
64061;SDS011;50308;47.438;-1.528;2023-08-17T10:35:42;8.32;;;5.38;;
64061;SDS011;50308;47.438;-1.528;2023-08-17T10:38:09;9.73;;;5.60;;
64061;SDS011;50308;47.438;-1.528;2023-08-17T10:40:37;8.18;;;5.25;;
64061;SDS011;50308;47.438;-1.528;2023-08-17T10:43:04;8.88;;;5.65;;
64061;SDS011;50308;47.438;-1.528;2023-08-17T10:45:31;10.57;;;5.28;;
64061;SDS011;50308;47.438;-1.528;2023-08-17T10:50:37;7.90;;;5.60;;
64061;SDS011;50308;47.438;-1.528;2023-08-17T10:53:04;8.90;;;6.00;;
64061;SDS011;50308;47.438;-1.528;2023-08-17T10:58:02;13.98;;;7.38;;
64061;SDS011;50308;47.438;-1.528;2023-08-17T11:00:35;16.90;;;7.50;;
64061;SDS011;50308;47.438;-1.528;2023-08-17T11:03:07;18.05;;;8.10;;
64061;SDS011;50308;47.438;-1.528;2023-08-17T11:05:47;16.25;;;8.75;;
64061;SDS011;50308;47.438;-1.528;2023-08-17T11:13:39;16.73;;;8.95;;
64061;SDS011;50308;47.438;-1.528;2023-08-17T11:16:10;19.38;;;11.02;;
64061;SDS011;50308;47.438;-1.528;2023-08-17T11:18:36;18.17;;;8.68;;
64061;SDS011;50308;47.438;-1.528;2023-08-17T11:21:03;24.45;;;9.98;;
64061;SDS011;50308;47.438;-1.528;2023-08-17T11:23:30;22.77;;;9.77;;
64061;SDS011;50308;47.438;-1.528;2023-08-17T11:25:57;19.85;;;9.85;;
64061;SDS011;50308;47.438;-1.528;2023-08-17T11:28:23;21.60;;;10.88;;
64061;SDS011;50308;47.438;-1.528;2023-08-17T11:31:05;25.15;;;10.60;;
64061;SDS011;50308;47.438;-1.528;2023-08-17T11:33:33;24.77;;;11.18;;
64061;SDS011;50308;47.438;-1.528;2023-08-17T11:36:01;27.67;;;10.40;;
64061;SDS011;50308;47.438;-1.528;2023-08-17T11:38:31;23.13;;;10.77;;
64061;SDS011;50308;47.438;-1.528;2023-08-17T11:40:57;28.67;;;10.32;;
64061;SDS011;50308;47.438;-1.528;2023-08-17T11:43:24;22.08;;;9.25;;
64061;SDS011;50308;47.438;-1.528;2023-08-17T11:45:51;22.77;;;10.00;;
64061;SDS011;50308;47.438;-1.528;2023-08-17T11:48:19;20.30;;;9.70;;
64061;SDS011;50308;47.438;-1.528;2023-08-17T11:50:45;24.73;;;10.40;;
64061;SDS011;50308;47.438;-1.528;2023-08-17T11:53:11;17.63;;;9.88;;
64061;SDS011;50308;47.438;-1.528;2023-08-17T11:55:37;22.08;;;10.00;;
64061;SDS011;50308;47.438;-1.528;2023-08-17T11:58:03;16.30;;;9.90;;
64061;SDS011;50308;47.438;-1.528;2023-08-17T12:00:34;20.52;;;9.68;;
64061;SDS011;50308;47.438;-1.528;2023-08-17T12:03:02;21.85;;;9.85;;
64061;SDS011;50308;47.438;-1.528;2023-08-17T12:05:30;16.80;;;9.82;;
64061;SDS011;50308;47.438;-1.528;2023-08-17T12:07:56;18.98;;;10.20;;
64061;SDS011;50308;47.438;-1.528;2023-08-17T12:10:22;22.38;;;11.18;;
64061;SDS011;50308;47.438;-1.528;2023-08-17T12:12:48;17.27;;;10.18;;
64061;SDS011;50308;47.438;-1.528;2023-08-17T12:15:15;16.02;;;10.32;;
64061;SDS011;50308;47.438;-1.528;2023-08-17T12:17:48;21.52;;;11.68;;
64061;SDS011;50308;47.438;-1.528;2023-08-17T12:20:16;19.40;;;12.20;;
64061;SDS011;50308;47.438;-1.528;2023-08-17T12:22:42;16.10;;;12.50;;
64061;SDS011;50308;47.438;-1.528;2023-08-17T12:25:09;16.65;;;11.90;;
64061;SDS011;50308;47.438;-1.528;2023-08-17T12:27:34;19.60;;;13.05;;
64061;SDS011;50308;47.438;-1.528;2023-08-17T12:30:00;17.52;;;11.98;;
64061;SDS011;50308;47.438;-1.528;2023-08-17T12:32:26;15.55;;;11.60;;
64061;SDS011;50308;47.438;-1.528;2023-08-17T12:34:52;18.23;;;11.38;;
64061;SDS011;50308;47.438;-1.528;2023-08-17T12:37:18;13.85;;;11.48;;
64061;SDS011;50308;47.438;-1.528;2023-08-17T12:39:46;13.98;;;10.55;;
64061;SDS011;50308;47.438;-1.528;2023-08-17T12:42:12;17.23;;;10.65;;
64061;SDS011;50308;47.438;-1.528;2023-08-17T12:44:38;14.18;;;10.57;;
64061;SDS011;50308;47.438;-1.528;2023-08-17T12:47:04;12.82;;;10.00;;
64061;SDS011;50308;47.438;-1.528;2023-08-17T12:49:30;16.25;;;10.45;;
64061;SDS011;50308;47.438;-1.528;2023-08-17T12:51:56;15.65;;;10.18;;
64061;SDS011;50308;47.438;-1.528;2023-08-17T12:54:21;13.52;;;10.02;;
64061;SDS011;50308;47.438;-1.528;2023-08-17T12:56:47;14.13;;;9.85;;
64061;SDS011;50308;47.438;-1.528;2023-08-17T12:59:13;13.73;;;9.82;;
64061;SDS011;50308;47.438;-1.528;2023-08-17T13:01:39;11.80;;;9.13;;
64061;SDS011;50308;47.438;-1.528;2023-08-17T13:04:04;12.32;;;8.52;;
64061;SDS011;50308;47.438;-1.528;2023-08-17T13:06:31;14.50;;;9.23;;
64061;SDS011;50308;47.438;-1.528;2023-08-17T13:08:56;12.32;;;9.55;;
64061;SDS011;50308;47.438;-1.528;2023-08-17T13:11:22;11.40;;;9.50;;
64061;SDS011;50308;47.438;-1.528;2023-08-17T13:13:48;13.00;;;9.30;;
64061;SDS011;50308;47.438;-1.528;2023-08-17T13:16:13;12.88;;;8.85;;
64061;SDS011;50308;47.438;-1.528;2023-08-17T13:18:39;14.82;;;9.63;;
64061;SDS011;50308;47.438;-1.528;2023-08-17T13:21:05;12.75;;;8.85;;
64061;SDS011;50308;47.438;-1.528;2023-08-17T13:23:31;12.68;;;9.00;;
64061;SDS011;50308;47.438;-1.528;2023-08-17T13:25:58;12.73;;;9.13;;
64061;SDS011;50308;47.438;-1.528;2023-08-17T13:28:24;11.70;;;8.95;;
64061;SDS011;50308;47.438;-1.528;2023-08-17T13:30:50;11.98;;;8.93;;
64061;SDS011;50308;47.438;-1.528;2023-08-17T13:33:15;10.38;;;7.95;;
64061;SDS011;50308;47.438;-1.528;2023-08-17T13:35:41;12.48;;;8.90;;
64061;SDS011;50308;47.438;-1.528;2023-08-17T13:38:07;17.65;;;9.43;;
64061;SDS011;50308;47.438;-1.528;2023-08-17T13:40:33;11.32;;;8.57;;
64061;SDS011;50308;47.438;-1.528;2023-08-17T13:43:01;12.95;;;8.88;;
64061;SDS011;50308;47.438;-1.528;2023-08-17T13:45:28;11.73;;;8.77;;
64061;SDS011;50308;47.438;-1.528;2023-08-17T13:47:53;12.07;;;8.73;;
64061;SDS011;50308;47.438;-1.528;2023-08-17T13:50:19;14.15;;;9.05;;
64061;SDS011;50308;47.438;-1.528;2023-08-17T13:52:45;12.13;;;8.90;;
64061;SDS011;50308;47.438;-1.528;2023-08-17T13:55:12;13.98;;;9.57;;
64061;SDS011;50308;47.438;-1.528;2023-08-17T13:57:37;12.45;;;9.57;;
64061;SDS011;50308;47.438;-1.528;2023-08-17T14:00:03;15.55;;;9.73;;
64061;SDS011;50308;47.438;-1.528;2023-08-17T14:02:29;14.57;;;9.07;;
64061;SDS011;50308;47.438;-1.528;2023-08-17T14:04:55;13.13;;;8.50;;
64061;SDS011;50308;47.438;-1.528;2023-08-17T14:07:21;11.95;;;8.77;;
64061;SDS011;50308;47.438;-1.528;2023-08-17T14:09:46;11.30;;;8.27;;
64061;SDS011;50308;47.438;-1.528;2023-08-17T14:12:12;12.00;;;8.45;;
64061;SDS011;50308;47.438;-1.528;2023-08-17T14:14:38;13.15;;;8.82;;
64061;SDS011;50308;47.438;-1.528;2023-08-17T14:17:03;11.65;;;8.38;;
64061;SDS011;50308;47.438;-1.528;2023-08-17T14:19:29;9.93;;;8.02;;
64061;SDS011;50308;47.438;-1.528;2023-08-17T14:21:56;11.60;;;8.13;;
64061;SDS011;50308;47.438;-1.528;2023-08-17T14:24:21;10.70;;;8.35;;
64061;SDS011;50308;47.438;-1.528;2023-08-17T14:26:47;11.65;;;8.15;;
64061;SDS011;50308;47.438;-1.528;2023-08-17T14:29:13;12.30;;;8.52;;
64061;SDS011;50308;47.438;-1.528;2023-08-17T14:31:39;10.00;;;7.70;;
64061;SDS011;50308;47.438;-1.528;2023-08-17T14:34:04;11.45;;;8.05;;
64061;SDS011;50308;47.438;-1.528;2023-08-17T14:36:30;12.57;;;9.43;;
64061;SDS011;50308;47.438;-1.528;2023-08-17T14:38:56;13.35;;;8.63;;
64061;SDS011;50308;47.438;-1.528;2023-08-17T14:41:21;10.10;;;8.05;;
64061;SDS011;50308;47.438;-1.528;2023-08-17T14:43:47;11.27;;;8.05;;
64061;SDS011;50308;47.438;-1.528;2023-08-17T14:46:13;10.95;;;8.40;;
64061;SDS011;50308;47.438;-1.528;2023-08-17T14:48:38;13.32;;;8.73;;
64061;SDS011;50308;47.438;-1.528;2023-08-17T14:51:04;11.25;;;8.68;;
64061;SDS011;50308;47.438;-1.528;2023-08-17T14:53:30;10.18;;;8.38;;